createdAt,value
2022-10-24T00:00:16.139Z,16.23
2022-10-24T00:02:43.372Z,16.23
2022-10-24T00:05:13.090Z,16.22
2022-10-24T00:07:40.601Z,16.22
2022-10-24T00:10:08.339Z,16.21
2022-10-24T00:12:35.197Z,16.21
2022-10-24T00:15:02.046Z,16.09
2022-10-24T00:17:28.870Z,16.20
2022-10-24T00:19:55.740Z,16.21
2022-10-24T00:22:22.602Z,16.22
2022-10-24T00:24:49.411Z,16.04
2022-10-24T00:27:16.258Z,16.19
2022-10-24T00:29:43.081Z,16.19
2022-10-24T00:32:09.956Z,16.16
2022-10-24T00:34:37.365Z,16.15
2022-10-24T00:37:04.275Z,16.14
2022-10-24T00:39:31.099Z,16.15
2022-10-24T00:41:59.076Z,16.14
2022-10-24T00:44:30.462Z,16.13
2022-10-24T00:47:08.272Z,16.14
2022-10-24T00:49:43.503Z,16.11
2022-10-24T00:52:11.168Z,16.13
2022-10-24T00:54:38.367Z,16.12
2022-10-24T00:57:25.131Z,16.10
2022-10-24T00:59:54.805Z,16.14
2022-10-24T01:02:21.898Z,16.10
2022-10-24T01:04:48.801Z,16.11
2022-10-24T01:07:31.259Z,16.12
2022-10-24T01:10:03.870Z,16.12
2022-10-24T01:12:58.288Z,16.09
2022-10-24T01:15:28.107Z,16.11
2022-10-24T01:18:27.467Z,16.13
2022-10-24T01:21:06.817Z,16.12
2022-10-24T01:23:42.336Z,16.11
2022-10-24T01:26:20.534Z,16.11
2022-10-24T01:29:11.644Z,16.10
2022-10-24T01:32:09.644Z,16.13
2022-10-24T01:34:47.027Z,16.11
2022-10-24T01:37:20.379Z,16.11
2022-10-24T01:39:52.489Z,16.09
2022-10-24T01:42:20.361Z,15.97
2022-10-24T01:44:49.416Z,16.07
2022-10-24T01:47:18.433Z,16.05
2022-10-24T01:49:49.495Z,15.91
2022-10-24T01:52:16.274Z,16.04
2022-10-24T01:54:43.751Z,16.06
2022-10-24T01:57:10.721Z,16.05
2022-10-24T01:59:40.482Z,16.06
2022-10-24T02:02:22.519Z,16.07
2022-10-24T02:04:57.065Z,15.82
2022-10-24T02:07:24.001Z,16.06
2022-10-24T02:09:53.278Z,16.06
2022-10-24T02:12:20.144Z,16.07
2022-10-24T02:14:51.690Z,16.06
2022-10-24T02:17:18.622Z,16.07
2022-10-24T02:19:45.622Z,16.07
2022-10-24T02:22:12.426Z,16.08
2022-10-24T02:24:44.427Z,16.07
2022-10-24T02:27:40.705Z,16.09
2022-10-24T02:30:09.509Z,16.11
2022-10-24T02:32:38.814Z,16.11
2022-10-24T02:35:06.568Z,16.05
2022-10-24T02:37:34.245Z,16.06
2022-10-24T02:40:01.078Z,16.09
2022-10-24T02:45:00.246Z,16.06
2022-10-24T02:47:27.292Z,16.07
2022-10-24T02:49:54.146Z,16.10
2022-10-24T02:52:21.125Z,16.09
2022-10-24T02:54:48.067Z,16.02
2022-10-24T02:57:15.510Z,16.03
2022-10-24T02:59:42.328Z,15.98
2022-10-24T03:02:09.168Z,16.01
2022-10-24T03:04:36.033Z,16.00
2022-10-24T03:07:02.870Z,16.02
2022-10-24T03:09:29.787Z,16.03
2022-10-24T03:11:56.667Z,16.03
2022-10-24T03:14:23.458Z,16.03
2022-10-24T03:16:50.306Z,16.04
2022-10-24T03:19:17.362Z,16.04
2022-10-24T03:21:44.355Z,16.05
2022-10-24T03:24:11.221Z,16.06
2022-10-24T03:26:38.104Z,16.07
2022-10-24T03:29:04.980Z,16.06
2022-10-24T03:31:32.070Z,16.07
2022-10-24T03:33:59.069Z,16.08
2022-10-24T03:36:26.025Z,16.08
2022-10-24T03:38:52.883Z,16.11
2022-10-24T03:41:19.730Z,16.09
2022-10-24T03:43:46.552Z,16.10
2022-10-24T03:46:13.387Z,16.10
2022-10-24T03:48:40.416Z,16.10
2022-10-24T03:51:07.348Z,16.11
2022-10-24T03:53:34.281Z,16.19
2022-10-24T03:56:01.278Z,16.34
2022-10-24T03:58:28.324Z,16.58
2022-10-24T04:00:58.393Z,16.74
2022-10-24T04:03:26.500Z,17.01
2022-10-24T04:05:53.581Z,17.37
2022-10-24T04:08:20.705Z,17.73
2022-10-24T04:10:49.027Z,18.15
2022-10-24T04:13:15.933Z,18.56
2022-10-24T04:15:43.020Z,18.97
2022-10-24T04:18:10.233Z,19.32
2022-10-24T04:20:37.248Z,19.67
2022-10-24T04:23:04.678Z,20.02
2022-10-24T04:25:31.955Z,20.34
2022-10-24T04:27:58.898Z,20.77
2022-10-24T04:30:26.546Z,21.12
2022-10-24T04:32:53.648Z,21.43
2022-10-24T04:35:20.701Z,21.77
2022-10-24T04:37:47.644Z,22.10
2022-10-24T04:40:14.718Z,22.41
2022-10-24T04:42:41.776Z,22.65
2022-10-24T04:45:09.488Z,22.80
2022-10-24T04:47:36.596Z,22.70
2022-10-24T04:50:04.085Z,22.83
2022-10-24T04:52:31.084Z,22.82
2022-10-24T04:54:58.071Z,22.81
2022-10-24T04:57:25.072Z,22.83
2022-10-24T04:59:52.004Z,22.91
2022-10-24T05:02:19.053Z,22.97
2022-10-24T05:04:46.100Z,22.98
2022-10-24T05:07:12.987Z,22.98
2022-10-24T05:09:39.949Z,23.01
2022-10-24T05:12:07.137Z,23.09
2022-10-24T05:14:34.057Z,23.14
2022-10-24T05:17:01.058Z,23.13
2022-10-24T05:19:27.995Z,23.11
2022-10-24T05:21:54.949Z,22.98
2022-10-24T05:24:21.888Z,22.86
2022-10-24T05:26:48.871Z,22.90
2022-10-24T05:29:15.912Z,22.97
2022-10-24T05:31:42.958Z,22.89
2022-10-24T05:34:09.915Z,23.02
2022-10-24T05:36:36.897Z,23.06
2022-10-24T05:39:04.054Z,23.00
2022-10-24T05:41:31.388Z,23.14
2022-10-24T05:43:58.624Z,23.03
2022-10-24T05:46:25.693Z,23.12
2022-10-24T05:48:52.565Z,23.10
2022-10-24T05:51:19.540Z,23.12
2022-10-24T05:53:46.539Z,23.17
2022-10-24T05:56:13.459Z,23.05
2022-10-24T05:58:40.465Z,23.16
2022-10-24T06:01:07.513Z,23.12
2022-10-24T06:03:34.618Z,23.20
2022-10-24T06:06:06.188Z,23.24
2022-10-24T06:08:36.949Z,23.18
2022-10-24T06:11:04.400Z,23.13
2022-10-24T06:13:35.269Z,23.26
2022-10-24T06:16:05.555Z,23.26
2022-10-24T06:18:32.811Z,23.35
2022-10-24T06:21:01.451Z,23.40
2022-10-24T06:23:28.564Z,23.39
2022-10-24T06:25:55.514Z,23.38
2022-10-24T06:28:22.416Z,23.26
2022-10-24T06:30:49.543Z,23.33
2022-10-24T06:33:16.443Z,23.47
2022-10-24T06:35:43.406Z,23.47
2022-10-24T06:38:11.569Z,23.43
2022-10-24T06:40:40.905Z,23.46
2022-10-24T06:43:07.788Z,23.49
2022-10-24T06:45:34.708Z,23.55
2022-10-24T06:48:01.601Z,23.56
2022-10-24T06:50:28.514Z,23.52
2022-10-24T06:52:55.452Z,23.51
2022-10-24T06:55:22.452Z,23.56
2022-10-24T06:57:49.383Z,23.64
2022-10-24T07:00:16.964Z,23.72
2022-10-24T07:02:44.232Z,23.74
2022-10-24T07:05:12.849Z,23.74
2022-10-24T07:07:41.264Z,23.79
2022-10-24T07:10:08.678Z,23.86
2022-10-24T07:12:35.515Z,23.77
2022-10-24T07:15:04.161Z,23.73
2022-10-24T07:17:31.496Z,23.71
2022-10-24T07:19:58.394Z,23.68
2022-10-24T07:22:26.616Z,23.77
2022-10-24T07:24:55.362Z,23.82
2022-10-24T07:27:22.676Z,23.76
2022-10-24T07:29:49.927Z,23.64
2022-10-24T07:32:16.898Z,23.86
2022-10-24T07:34:44.133Z,23.88
2022-10-24T07:37:11.091Z,23.84
2022-10-24T07:39:38.033Z,23.97
2022-10-24T07:42:04.931Z,23.87
2022-10-24T07:44:31.859Z,23.96
2022-10-24T07:46:58.846Z,23.99
2022-10-24T07:49:29.000Z,24.05
2022-10-24T07:51:58.462Z,24.12
2022-10-24T07:54:26.860Z,24.01
2022-10-24T07:56:54.184Z,24.15
2022-10-24T07:59:40.673Z,24.17
2022-10-24T08:02:10.809Z,24.23
2022-10-24T08:04:37.761Z,24.28
2022-10-24T08:07:04.678Z,24.25
2022-10-24T08:09:31.580Z,24.23
2022-10-24T08:11:58.632Z,24.21
2022-10-24T08:14:26.342Z,24.19
2022-10-24T08:16:53.261Z,24.16
2022-10-24T08:19:20.277Z,24.13
2022-10-24T08:21:47.288Z,24.09
2022-10-24T08:24:14.195Z,24.05
2022-10-24T08:26:41.451Z,24.03
2022-10-24T08:29:11.660Z,23.98
2022-10-24T08:31:38.706Z,23.94
2022-10-24T08:34:06.240Z,23.90
2022-10-24T08:36:34.645Z,23.86
2022-10-24T08:39:01.681Z,23.70
2022-10-24T08:41:38.078Z,23.79
2022-10-24T08:44:27.034Z,23.74
2022-10-24T08:47:24.668Z,23.72
2022-10-24T08:50:04.532Z,23.68
2022-10-24T08:52:33.822Z,23.65
2022-10-24T08:55:48.672Z,23.65
2022-10-24T08:58:25.282Z,23.56
2022-10-24T09:00:54.139Z,23.47
2022-10-24T09:03:54.944Z,23.47
2022-10-24T09:06:21.984Z,23.46
2022-10-24T09:08:54.100Z,23.47
2022-10-24T09:11:44.530Z,23.47
2022-10-24T09:14:22.493Z,23.32
2022-10-24T09:20:27.783Z,23.42
2022-10-24T09:22:56.208Z,23.40
2022-10-24T09:25:33.864Z,23.42
2022-10-24T09:28:04.878Z,23.40
2022-10-24T09:30:33.468Z,23.38
2022-10-24T09:33:14.643Z,23.39
2022-10-24T09:35:41.583Z,23.38
2022-10-24T09:38:26.043Z,23.41
2022-10-24T09:40:54.999Z,23.36
2022-10-24T09:43:46.054Z,23.35
2022-10-24T09:46:16.316Z,23.33
2022-10-24T09:48:53.192Z,23.33
2022-10-24T09:51:27.499Z,23.25
2022-10-24T09:54:17.638Z,23.31
2022-10-24T09:56:46.005Z,23.31
2022-10-24T09:59:33.266Z,23.34
2022-10-24T10:02:24.471Z,23.36
2022-10-24T10:05:03.810Z,23.38
2022-10-24T10:07:39.495Z,23.36
2022-10-24T10:10:35.791Z,23.41
2022-10-24T10:13:12.635Z,23.40
2022-10-24T10:15:56.181Z,23.44
2022-10-24T10:18:42.252Z,23.47
2022-10-24T10:21:09.327Z,23.46
2022-10-24T10:23:55.779Z,23.49
2022-10-24T10:26:24.927Z,23.51
2022-10-24T10:29:00.168Z,23.53
2022-10-24T10:32:01.833Z,23.56
2022-10-24T10:34:37.406Z,23.46
2022-10-24T10:37:23.597Z,23.57
2022-10-24T10:40:12.093Z,23.59
2022-10-24T10:43:00.582Z,23.60
2022-10-24T10:46:05.088Z,23.66
2022-10-24T10:48:53.040Z,23.69
2022-10-24T10:51:49.331Z,23.70
2022-10-24T10:54:24.050Z,23.72
2022-10-24T10:56:54.542Z,23.75
2022-10-24T10:59:49.440Z,23.82
2022-10-24T11:02:39.464Z,23.84
2022-10-24T11:05:40.358Z,23.90
2022-10-24T11:08:33.082Z,23.94
2022-10-24T11:11:02.905Z,23.92
2022-10-24T11:13:36.042Z,23.86
2022-10-24T11:16:05.996Z,23.86
2022-10-24T11:18:35.605Z,23.93
2022-10-24T11:21:06.309Z,24.04
2022-10-24T11:23:50.164Z,24.07
2022-10-24T11:26:27.013Z,24.07
2022-10-24T11:29:25.058Z,24.10
2022-10-24T11:32:00.843Z,24.09
2022-10-24T11:34:41.264Z,24.04
2022-10-24T11:37:19.015Z,24.13
2022-10-24T11:39:56.165Z,24.14
2022-10-24T11:43:01.062Z,24.19
2022-10-24T11:45:49.392Z,24.05
2022-10-24T11:48:19.962Z,24.19
2022-10-24T11:50:56.431Z,24.22
2022-10-24T11:53:31.258Z,24.21
2022-10-24T11:56:12.127Z,24.17
2022-10-24T11:59:04.291Z,24.25
2022-10-24T12:01:55.461Z,24.14
2022-10-24T12:04:59.531Z,24.16
2022-10-24T12:07:44.864Z,24.22
2022-10-24T12:10:27.523Z,24.04
2022-10-24T12:13:03.195Z,24.35
2022-10-24T12:15:46.069Z,24.18
2022-10-24T12:18:38.155Z,24.44
2022-10-24T12:21:07.780Z,24.46
2022-10-24T12:23:34.799Z,24.47
2022-10-24T12:26:16.370Z,24.49
2022-10-24T12:28:43.653Z,24.44
2022-10-24T12:31:21.016Z,24.54
2022-10-24T12:34:15.607Z,24.54
2022-10-24T12:37:12.235Z,24.57
2022-10-24T12:39:47.119Z,24.60
2022-10-24T12:42:24.907Z,24.64
2022-10-24T12:45:00.760Z,24.69
2022-10-24T12:47:31.898Z,24.64
2022-10-24T12:50:19.619Z,24.70
2022-10-24T12:52:46.821Z,24.84
2022-10-24T12:55:39.336Z,24.90
2022-10-24T12:58:21.825Z,24.94
2022-10-24T13:01:02.282Z,24.96
2022-10-24T13:03:50.717Z,25.01
2022-10-24T13:06:29.590Z,25.03
2022-10-24T13:09:14.827Z,25.09
2022-10-24T13:12:29.816Z,24.96
2022-10-24T13:15:08.980Z,24.85
2022-10-24T13:17:59.254Z,24.87
2022-10-24T13:20:50.633Z,24.90
2022-10-24T13:23:22.582Z,24.94
2022-10-24T13:25:50.949Z,25.01
2022-10-24T13:28:22.376Z,25.07
2022-10-24T13:30:50.840Z,25.01
2022-10-24T13:33:41.493Z,25.13
2022-10-24T13:36:16.420Z,25.11
2022-10-24T13:39:03.972Z,25.12
2022-10-24T13:41:36.175Z,25.15
2022-10-24T13:44:12.183Z,25.16
2022-10-24T13:46:51.687Z,25.18
2022-10-24T13:50:01.460Z,25.23
2022-10-24T13:52:33.547Z,25.11
2022-10-24T13:55:12.724Z,25.26
2022-10-24T13:57:52.545Z,25.27
2022-10-24T14:00:42.747Z,25.29
2022-10-24T14:03:17.660Z,25.29
2022-10-24T14:05:55.255Z,25.21
2022-10-24T14:08:31.267Z,25.31
2022-10-24T14:10:59.472Z,25.30
2022-10-24T14:13:26.487Z,25.21
2022-10-24T14:15:55.913Z,25.30
2022-10-24T14:18:23.102Z,25.29
2022-10-24T14:20:57.540Z,25.27
2022-10-24T14:23:28.289Z,25.23
2022-10-24T14:26:01.943Z,25.22
2022-10-24T14:28:31.201Z,25.19
2022-10-24T14:31:03.474Z,25.12
2022-10-24T14:33:31.564Z,25.17
2022-10-24T14:36:00.180Z,25.14
2022-10-24T14:38:27.761Z,25.17
2022-10-24T14:41:07.841Z,25.18
2022-10-24T14:43:37.481Z,25.08
2022-10-24T14:46:13.495Z,25.15
2022-10-24T14:48:42.004Z,25.10
2022-10-24T14:51:11.316Z,25.06
2022-10-24T14:53:39.198Z,25.02
2022-10-24T14:56:25.403Z,25.05
2022-10-24T14:58:52.508Z,25.01
2022-10-24T15:01:22.466Z,25.01
2022-10-24T15:03:52.995Z,25.00
2022-10-24T15:06:25.158Z,24.98
2022-10-24T15:09:04.780Z,24.95
2022-10-24T15:11:35.358Z,24.92
2022-10-24T15:14:09.365Z,24.88
2022-10-24T15:16:38.015Z,24.86
2022-10-24T15:19:06.083Z,24.71
2022-10-24T15:21:39.298Z,24.81
2022-10-24T15:24:06.537Z,24.78
2022-10-24T15:26:34.497Z,24.67
2022-10-24T15:29:07.181Z,24.75
2022-10-24T15:31:38.548Z,24.70
2022-10-24T15:34:07.566Z,24.64
2022-10-24T15:36:40.202Z,24.62
2022-10-24T15:39:12.647Z,24.58
2022-10-24T15:41:40.000Z,24.46
2022-10-24T15:44:17.876Z,24.52
2022-10-24T15:46:47.929Z,24.47
2022-10-24T15:49:14.813Z,24.45
2022-10-24T15:51:46.019Z,24.42
2022-10-24T15:54:17.401Z,24.39
2022-10-24T15:56:44.246Z,24.37
2022-10-24T15:59:11.095Z,24.34
2022-10-24T16:01:40.674Z,24.32
2022-10-24T16:04:08.661Z,24.32
2022-10-24T16:06:35.542Z,24.29
2022-10-24T16:09:02.384Z,24.27
2022-10-24T16:11:29.280Z,24.15
2022-10-24T16:13:56.245Z,24.23
2022-10-24T16:16:23.065Z,24.21
2022-10-24T16:18:49.988Z,24.18
2022-10-24T16:21:20.581Z,24.14
2022-10-24T16:23:47.541Z,24.11
2022-10-24T16:26:14.559Z,24.07
2022-10-24T16:28:41.510Z,23.98
2022-10-24T16:31:08.461Z,23.94
2022-10-24T16:33:35.523Z,23.94
2022-10-24T16:36:02.329Z,23.93
2022-10-24T16:38:29.305Z,23.90
2022-10-24T16:40:56.237Z,23.86
2022-10-24T16:43:23.073Z,23.81
2022-10-24T16:45:57.477Z,23.71
2022-10-24T16:48:24.339Z,23.75
2022-10-24T16:50:51.165Z,23.71
2022-10-24T16:53:18.452Z,23.69
2022-10-24T16:55:47.710Z,23.55
2022-10-24T16:58:14.521Z,23.59
2022-10-24T17:00:41.447Z,23.56
2022-10-24T17:03:08.336Z,23.44
2022-10-24T17:05:35.243Z,23.50
2022-10-24T17:08:02.215Z,23.49
2022-10-24T17:10:29.064Z,23.47
2022-10-24T17:12:56.410Z,23.45
2022-10-24T17:15:23.394Z,23.42
2022-10-24T17:17:50.269Z,23.43
2022-10-24T17:20:17.452Z,23.38
2022-10-24T17:22:44.944Z,23.36
2022-10-24T17:25:22.778Z,23.36
2022-10-24T17:27:49.868Z,23.33
2022-10-24T17:30:24.700Z,23.30
2022-10-24T17:32:51.709Z,23.26
2022-10-24T17:35:20.668Z,23.11
2022-10-24T17:37:50.191Z,23.23
2022-10-24T17:40:20.330Z,23.20
2022-10-24T17:42:50.255Z,23.15
2022-10-24T17:45:19.051Z,23.15
2022-10-24T17:50:17.951Z,23.12
2022-10-24T17:52:50.276Z,23.09
2022-10-24T17:55:40.983Z,23.07
2022-10-24T17:58:06.789Z,23.03
2022-10-24T18:00:33.763Z,23.02
2022-10-24T18:03:00.601Z,22.99
2022-10-24T18:05:28.637Z,22.96
2022-10-24T18:07:57.801Z,22.87
2022-10-24T18:10:24.715Z,22.92
2022-10-24T18:12:51.680Z,22.91
2022-10-24T18:15:21.276Z,22.90
2022-10-24T18:17:48.365Z,22.87
2022-10-24T18:20:15.733Z,22.83
2022-10-24T18:22:43.433Z,22.81
2022-10-24T18:25:11.216Z,22.78
2022-10-24T18:27:38.071Z,22.75
2022-10-24T18:30:05.570Z,22.71
2022-10-24T18:32:32.914Z,22.61
2022-10-24T18:34:59.866Z,22.69
2022-10-24T18:37:27.613Z,22.68
2022-10-24T18:39:54.697Z,22.65
2022-10-24T18:42:36.135Z,22.65
2022-10-24T18:45:04.176Z,22.61
2022-10-24T18:47:31.343Z,22.61
2022-10-24T18:49:58.496Z,22.59
2022-10-24T18:52:40.687Z,22.58
2022-10-24T18:55:21.400Z,22.53
2022-10-24T18:57:49.044Z,22.52
2022-10-24T19:00:18.458Z,22.48
2022-10-24T19:03:08.577Z,22.48
2022-10-24T19:05:43.591Z,22.46
2022-10-24T19:08:13.757Z,22.42
2022-10-24T19:10:40.929Z,22.41
2022-10-24T19:13:08.046Z,22.38
2022-10-24T19:15:38.807Z,22.24
2022-10-24T19:18:06.500Z,22.32
2022-10-24T19:20:35.142Z,22.30
2022-10-24T19:23:05.241Z,22.28
2022-10-24T19:25:32.948Z,22.26
2022-10-24T19:27:59.824Z,22.22
2022-10-24T19:30:26.782Z,22.18
2022-10-24T19:32:53.600Z,22.18
2022-10-24T19:35:20.451Z,22.17
2022-10-24T19:37:47.863Z,22.15
2022-10-24T19:40:14.959Z,22.00
2022-10-24T19:42:41.827Z,22.04
2022-10-24T19:45:08.961Z,22.10
2022-10-24T19:47:35.799Z,22.10
2022-10-24T19:50:02.701Z,22.09
2022-10-24T19:52:29.570Z,22.04
2022-10-24T19:54:56.412Z,22.04
2022-10-24T19:57:23.232Z,22.00
2022-10-24T19:59:50.143Z,21.99
2022-10-24T20:02:16.966Z,21.98
2022-10-24T20:04:48.107Z,21.95
2022-10-24T20:07:17.521Z,21.94
2022-10-24T20:09:44.474Z,21.92
2022-10-24T20:12:11.474Z,21.90
2022-10-24T20:14:38.348Z,21.89
2022-10-24T20:17:05.138Z,21.76
2022-10-24T20:19:32.077Z,21.84
2022-10-24T20:22:01.671Z,21.78
2022-10-24T20:24:30.617Z,21.79
2022-10-24T20:26:57.480Z,21.78
2022-10-24T20:29:24.371Z,21.75
2022-10-24T20:31:51.228Z,21.73
2022-10-24T20:34:18.058Z,21.72
2022-10-24T20:36:47.237Z,21.70
2022-10-24T20:39:16.025Z,21.59
2022-10-24T20:41:43.292Z,21.66
2022-10-24T20:44:11.124Z,21.65
2022-10-24T20:46:38.032Z,21.63
2022-10-24T20:49:05.052Z,21.63
2022-10-24T20:51:31.962Z,21.51
2022-10-24T20:53:58.837Z,21.63
2022-10-24T20:56:26.650Z,21.63
2022-10-24T20:58:54.759Z,21.62
2022-10-24T21:01:25.737Z,21.60
2022-10-24T21:03:52.924Z,21.58
2022-10-24T21:06:21.375Z,21.57
2022-10-24T21:08:48.737Z,21.55
2022-10-24T21:11:16.233Z,21.53
2022-10-24T21:13:43.757Z,21.51
2022-10-24T21:16:10.806Z,21.39
2022-10-24T21:18:37.879Z,21.47
2022-10-24T21:21:12.955Z,21.41
2022-10-24T21:23:39.846Z,21.36
2022-10-24T21:26:15.520Z,21.35
2022-10-24T21:28:42.380Z,21.31
2022-10-24T21:31:13.623Z,21.29
2022-10-24T21:33:43.203Z,21.29
2022-10-24T21:36:28.060Z,21.28
2022-10-24T21:38:59.555Z,21.28
2022-10-24T21:41:27.092Z,21.25
2022-10-24T21:43:54.088Z,21.24
2022-10-24T21:46:22.424Z,21.23
2022-10-24T21:48:49.743Z,21.21
2022-10-24T21:51:17.662Z,21.19
2022-10-24T21:53:49.345Z,21.20
2022-10-24T21:56:18.508Z,21.20
2022-10-24T21:58:49.514Z,21.19
2022-10-24T22:01:20.574Z,21.17
2022-10-24T22:03:47.495Z,21.16
2022-10-24T22:06:16.461Z,20.91
2022-10-24T22:08:43.760Z,21.14
2022-10-24T22:11:18.638Z,21.11
2022-10-24T22:13:45.522Z,21.11
2022-10-24T22:16:13.102Z,21.09
2022-10-24T22:18:40.142Z,21.08
2022-10-24T22:21:09.809Z,21.06
2022-10-24T22:23:37.089Z,21.03
2022-10-24T22:26:04.722Z,20.90
2022-10-24T22:28:31.578Z,20.84
2022-10-24T22:30:58.709Z,20.82
2022-10-24T22:33:28.442Z,20.95
2022-10-24T22:35:58.268Z,20.94
2022-10-24T22:38:25.259Z,20.92
2022-10-24T22:43:24.416Z,20.87
2022-10-24T22:46:05.821Z,20.86
2022-10-24T22:48:33.660Z,20.86
2022-10-24T22:51:00.599Z,20.84
2022-10-24T22:53:29.011Z,20.73
2022-10-24T22:56:04.470Z,20.82
2022-10-24T22:58:31.666Z,20.81
2022-10-24T23:01:09.583Z,20.81
2022-10-24T23:04:00.964Z,20.80
2022-10-24T23:06:50.532Z,20.79
2022-10-24T23:09:17.445Z,20.64
2022-10-24T23:11:44.484Z,20.74
2022-10-24T23:14:11.777Z,20.74
2022-10-24T23:16:57.657Z,20.73
2022-10-24T23:19:26.396Z,20.71
2022-10-24T23:22:07.303Z,20.68
2022-10-24T23:24:34.401Z,20.66
2022-10-24T23:27:13.215Z,20.66
2022-10-24T23:29:44.353Z,20.54
2022-10-24T23:32:22.365Z,20.63
2022-10-24T23:34:49.606Z,20.58
2022-10-24T23:37:35.847Z,20.56
2022-10-24T23:40:28.989Z,20.56
2022-10-24T23:42:56.216Z,20.53
2022-10-24T23:45:24.903Z,20.52
2022-10-24T23:48:10.423Z,20.50
2022-10-24T23:51:05.007Z,20.48
2022-10-24T23:53:50.064Z,20.45
2022-10-24T23:56:18.706Z,20.43
2022-10-24T23:58:45.544Z,20.42
